Time;durP1;ratioP1;P1;durP2;ratioP2;P2;SDS_P1;SDS_P2;PMS_P1;PMS_P2;Temp;Humidity;BMP_temperature;BMP_pressure;BME280_temperature;BME280_humidity;BME280_pressure;Samples;Min_cycle;Max_cycle;Signal;HPM_P1;HPM_P2
2022/04/01 06:31:54;;;;;;;14.25;9.07;;;;;;;1.89;100.00;97211.19;5130003;27;20350;-82
2022/04/01 06:34:31;;;;;;;14.45;8.57;;;;;;;1.86;100.00;97197.31;5130279;27;20078;-82
2022/04/01 06:37:05;;;;;;;14.90;9.75;;;;;;;1.97;100.00;97199.56;5128984;27;20513;-82
2022/04/01 06:39:44;;;;;;;14.38;8.85;;;;;;;2.05;100.00;97209.41;5123100;27;20425;-82
2022/04/01 06:42:19;;;;;;;15.07;9.40;;;;;;;1.98;100.00;97219.19;5107681;28;20058;-82
2022/04/01 06:44:46;;;;;;;17.20;10.57;;;;;;;2.01;100.00;97200.88;5108363;28;20079;-82
2022/04/01 06:47:14;;;;;;;15.65;10.25;;;;;;;2.10;100.00;97226.59;5120736;27;20059;-82
2022/04/01 06:49:41;;;;;;;16.08;9.60;;;;;;;2.12;100.00;97227.28;5127131;27;20104;-82
2022/04/01 06:52:08;;;;;;;16.45;8.95;;;;;;;2.10;100.00;97210.53;5126846;27;20035;-82
2022/04/01 06:54:36;;;;;;;13.65;9.80;;;;;;;2.03;100.00;97217.63;5131389;28;20055;-82
2022/04/01 06:57:03;;;;;;;16.70;9.57;;;;;;;2.11;100.00;97212.19;5128945;28;20047;-82
2022/04/01 06:59:30;;;;;;;14.80;8.52;;;;;;;2.10;100.00;97218.56;5129250;28;20124;-82
2022/04/01 07:01:57;;;;;;;13.15;7.18;;;;;;;2.06;100.00;97211.91;5128252;28;20078;-84
2022/04/01 07:04:25;;;;;;;17.02;9.32;;;;;;;2.27;100.00;97218.44;5128420;28;20051;-82
2022/04/01 07:06:51;;;;;;;15.40;9.48;;;;;;;2.25;100.00;97221.31;5123932;28;20490;-82
2022/04/01 07:09:18;;;;;;;16.20;10.20;;;;;;;2.21;100.00;97224.53;5123218;27;20499;-82
2022/04/01 07:11:45;;;;;;;12.45;8.00;;;;;;;2.18;100.00;97225.72;5121260;27;20100;-81
2022/04/01 07:14:11;;;;;;;13.38;8.25;;;;;;;2.01;100.00;97208.91;5127631;28;20051;-82
2022/04/01 07:16:38;;;;;;;14.57;9.52;;;;;;;2.21;100.00;97208.44;5129618;28;20043;-83
2022/04/01 07:19:06;;;;;;;14.98;8.88;;;;;;;2.21;100.00;97214.63;5129697;28;20090;-83
2022/04/01 07:21:34;;;;;;;15.80;9.10;;;;;;;2.15;100.00;97226.06;5128088;28;20681;-83
2022/04/01 07:24:02;;;;;;;11.05;7.13;;;;;;;2.17;100.00;97229.44;5124179;27;20074;-82
2022/04/01 07:26:28;;;;;;;12.35;8.55;;;;;;;2.13;100.00;97220.88;5107386;28;20428;-83
2022/04/01 07:28:55;;;;;;;12.82;7.50;;;;;;;2.19;100.00;97226.56;5120394;28;20447;-82
2022/04/01 07:34:07;;;;;;;10.93;7.22;;;;;;;2.19;100.00;97231.94;5106805;28;20054;-81
2022/04/01 07:36:36;;;;;;;11.43;7.88;;;;;;;2.18;100.00;97208.81;5107309;28;20491;-82
2022/04/01 07:39:04;;;;;;;13.75;8.05;;;;;;;2.15;100.00;97230.59;5106456;28;20485;-81
2022/04/01 07:41:35;;;;;;;7.88;5.35;;;;;;;2.05;100.00;97231.69;5102643;28;20052;-81
2022/04/01 07:44:01;;;;;;;14.52;8.63;;;;;;;2.22;100.00;97237.75;5093017;28;20083;-82
2022/04/01 07:46:28;;;;;;;13.18;9.40;;;;;;;2.24;100.00;97241.09;5094091;28;20266;-82
2022/04/01 07:48:55;;;;;;;13.35;7.45;;;;;;;2.24;100.00;97242.94;5093557;28;20150;-82
2022/04/01 07:51:21;;;;;;;12.82;8.38;;;;;;;2.25;100.00;97232.03;5093290;28;20238;-82
2022/04/01 07:53:49;;;;;;;13.80;8.98;;;;;;;2.34;100.00;97237.34;5092938;28;20052;-81
2022/04/01 07:56:16;;;;;;;15.95;9.18;;;;;;;2.33;100.00;97249.06;5093289;28;20131;-82
2022/04/01 07:58:43;;;;;;;16.48;9.82;;;;;;;2.39;100.00;97238.44;5092517;28;20127;-82
2022/04/01 08:01:09;;;;;;;12.93;8.90;;;;;;;2.48;100.00;97247.25;5093150;28;20514;-81
2022/04/01 08:03:37;;;;;;;15.35;8.90;;;;;;;2.42;100.00;97237.25;5092772;28;20067;-82
2022/04/01 08:06:04;;;;;;;9.63;5.32;;;;;;;2.25;100.00;97231.22;5093352;28;20052;-82
2022/04/01 08:08:31;;;;;;;12.38;8.40;;;;;;;2.40;100.00;97250.84;5093439;28;20062;-82
2022/04/01 08:11:00;;;;;;;13.02;8.43;;;;;;;2.33;100.00;97243.72;5093208;28;20072;-83
2022/04/01 08:13:28;;;;;;;12.32;7.22;;;;;;;2.44;100.00;97251.34;5091512;28;20044;-83
2022/04/01 08:15:55;;;;;;;14.32;9.27;;;;;;;2.46;100.00;97239.41;5092885;28;20093;-82
2022/04/01 08:18:22;;;;;;;16.45;10.32;;;;;;;2.62;100.00;97251.00;5093016;28;20130;-83
2022/04/01 08:20:50;;;;;;;8.05;6.05;;;;;;;2.48;100.00;97249.94;5092893;28;20048;-82
2022/04/01 08:23:19;;;;;;;10.90;7.15;;;;;;;2.56;100.00;97259.78;5092009;28;20048;-82
2022/04/01 08:25:46;;;;;;;11.88;7.32;;;;;;;2.62;100.00;97269.78;5093004;28;20052;-83
2022/04/01 08:31:44;;;;;;;20.95;7.80;;;;;;;2.70;100.00;97277.78;5091858;28;20059;-82
2022/04/01 08:34:11;;;;;;;10.48;7.55;;;;;;;2.56;100.00;97283.91;5091252;28;20040;-82
2022/04/01 08:36:37;;;;;;;9.00;6.32;;;;;;;2.45;100.00;97277.13;5092567;28;20048;-83
2022/04/01 08:39:04;;;;;;;7.75;5.05;;;;;;;2.32;100.00;97263.47;5091788;28;20131;-83
2022/04/01 08:41:31;;;;;;;10.05;6.97;;;;;;;2.46;100.00;97276.13;5092788;28;20488;-82
2022/04/01 08:43:58;;;;;;;9.07;6.07;;;;;;;2.53;100.00;97285.13;5091571;28;20147;-83
2022/04/01 08:46:25;;;;;;;10.45;6.78;;;;;;;2.70;100.00;97301.09;5092351;28;20491;-83
2022/04/01 08:48:53;;;;;;;9.95;6.97;;;;;;;2.76;100.00;97300.38;5090747;28;20050;-82
2022/04/01 08:51:21;;;;;;;8.75;6.03;;;;;;;2.56;100.00;97295.50;5092869;28;20047;-82
2022/04/01 08:53:47;;;;;;;12.38;7.57;;;;;;;2.66;100.00;97297.91;5090599;28;20091;-82
2022/04/01 08:56:27;;;;;;;11.48;7.10;;;;;;;2.50;100.00;97298.06;5094315;28;20040;-82
2022/04/01 08:58:54;;;;;;;10.50;6.75;;;;;;;2.55;100.00;97303.72;5096026;28;20052;-83
2022/04/01 09:01:20;;;;;;;9.00;6.53;;;;;;;2.35;100.00;97293.47;5092499;28;20534;-82
2022/04/01 09:03:47;;;;;;;9.90;5.80;;;;;;;2.53;100.00;97320.00;5090475;28;20068;-83
2022/04/01 09:06:15;;;;;;;6.47;4.82;;;;;;;2.35;100.00;97309.56;5096385;28;20051;-81
2022/04/01 09:08:43;;;;;;;7.03;5.50;;;;;;;2.44;100.00;97308.50;5092051;28;20051;-81
2022/04/01 09:11:12;;;;;;;9.38;5.93;;;;;;;2.69;100.00;97316.34;5092220;28;20063;-81
2022/04/01 09:13:50;;;;;;;7.97;5.15;;;;;;;2.73;100.00;97331.06;5091118;28;20056;-81
2022/04/01 09:16:25;;;;;;;6.63;4.72;;;;;;;2.35;100.00;97314.06;5092320;28;20472;-81
2022/04/01 09:18:54;;;;;;;6.15;4.88;;;;;;;2.22;100.00;97310.16;5090739;28;20052;-81
2022/04/01 09:21:26;;;;;;;6.13;4.43;;;;;;;2.38;100.00;97303.84;5091258;28;20047;-82
2022/04/01 09:23:53;;;;;;;11.57;5.05;;;;;;;2.39;100.00;97334.16;5090908;28;20202;-82
2022/04/01 09:26:21;;;;;;;7.13;4.78;;;;;;;2.24;100.00;97324.22;5091837;28;20094;-83
2022/04/01 09:28:52;;;;;;;6.30;5.13;;;;;;;2.26;100.00;97332.91;5091605;28;20683;-82
2022/04/01 09:31:20;;;;;;;5.45;4.38;;;;;;;2.28;100.00;97343.47;5095812;28;20548;-82
2022/04/01 09:33:49;;;;;;;5.85;4.20;;;;;;;2.16;100.00;97347.56;5095049;28;20521;-82
2022/04/01 09:36:26;;;;;;;6.22;4.80;;;;;;;2.22;100.00;97350.38;5096895;28;20559;-82
2022/04/01 09:39:00;;;;;;;4.70;3.72;;;;;;;2.19;100.00;97352.56;5094743;28;20077;-82
2022/04/01 09:41:38;;;;;;;7.10;5.05;;;;;;;2.17;100.00;97336.66;5095613;28;20050;-81
2022/04/01 09:44:09;;;;;;;8.00;5.88;;;;;;;2.29;100.00;97339.78;5098048;28;20079;-81
2022/04/01 09:46:42;;;;;;;5.57;3.83;;;;;;;2.22;100.00;97334.28;5099280;28;20068;-82
2022/04/01 09:49:09;;;;;;;9.57;4.22;;;;;;;2.29;100.00;97343.28;5099681;28;20098;-81
2022/04/01 09:51:42;;;;;;;7.65;4.90;;;;;;;2.14;100.00;97350.41;5095159;28;20546;-82
2022/04/01 09:54:10;;;;;;;6.13;4.60;;;;;;;2.25;100.00;97346.50;5090498;28;20047;-82
2022/04/01 09:56:42;;;;;;;5.78;4.32;;;;;;;2.34;100.00;97355.34;5091513;28;20058;-83
2022/04/01 09:59:11;;;;;;;6.20;4.32;;;;;;;2.24;100.00;97359.09;5071301;28;20044;-83
2022/04/01 10:01:39;;;;;;;7.70;4.15;;;;;;;2.30;100.00;97336.06;5071314;28;20084;-83
2022/04/01 10:04:07;;;;;;;5.45;4.47;;;;;;;2.28;100.00;97355.00;5070196;28;20101;-84
2022/04/01 10:06:34;;;;;;;5.13;4.05;;;;;;;2.33;100.00;97364.38;5071178;28;20123;-83
2022/04/01 10:09:05;;;;;;;4.78;3.70;;;;;;;2.30;100.00;97362.88;5088415;28;20048;-83
2022/04/01 10:11:33;;;;;;;4.55;3.70;;;;;;;2.32;100.00;97371.59;5093214;28;20052;-82
2022/04/01 10:14:04;;;;;;;5.00;3.78;;;;;;;2.33;100.00;97370.56;5090675;28;20079;-83
2022/04/01 10:16:33;;;;;;;4.95;3.95;;;;;;;2.23;100.00;97362.78;5090112;28;20062;-82
2022/04/01 10:19:05;;;;;;;5.80;4.38;;;;;;;2.20;100.00;97356.91;5091197;28;20048;-82
2022/04/01 10:21:33;;;;;;;4.78;3.75;;;;;;;2.09;100.00;97361.69;5091163;28;20068;-83
2022/04/01 10:24:06;;;;;;;3.72;2.47;;;;;;;2.05;100.00;97372.91;5090249;28;20054;-82
2022/04/01 10:26:34;;;;;;;6.45;4.10;;;;;;;2.17;100.00;97384.06;5091143;28;20054;-83
2022/04/01 10:29:03;;;;;;;6.55;4.13;;;;;;;2.15;100.00;97386.91;5091722;28;20054;-84
2022/04/01 10:31:29;;;;;;;4.47;3.90;;;;;;;2.26;100.00;97381.19;5090623;28;20048;-82
2022/04/01 10:34:21;;;;;;;4.93;3.58;;;;;;;1.99;100.00;97377.13;5088969;28;20090;-81
2022/04/01 10:36:54;;;;;;;4.15;3.20;;;;;;;1.97;100.00;97371.09;5087093;28;20502;-82
2022/04/01 10:39:24;;;;;;;4.70;3.90;;;;;;;2.06;100.00;97396.00;5089354;28;20131;-81
2022/04/01 10:42:10;;;;;;;4.00;2.50;;;;;;;1.95;100.00;97389.19;5090832;28;20051;-81
2022/04/01 10:44:51;;;;;;;4.90;3.90;;;;;;;2.11;100.00;97389.13;5090917;28;20138;-81
2022/04/01 10:47:18;;;;;;;6.03;3.65;;;;;;;1.96;100.00;97385.53;5091035;28;20399;-81
2022/04/01 10:52:30;;;;;;;4.15;3.63;;;;;;;1.99;100.00;97381.63;5088481;28;20055;-81
2022/04/01 10:55:12;;;;;;;5.97;3.90;;;;;;;2.12;100.00;97381.91;5090418;28;20044;-81
2022/04/01 10:57:43;;;;;;;5.65;3.90;;;;;;;2.09;100.00;97390.31;5090986;28;20047;-81
2022/04/01 11:00:15;;;;;;;3.92;3.40;;;;;;;2.01;100.00;97395.72;5091000;28;20475;-81
2022/04/01 11:02:43;;;;;;;5.40;4.07;;;;;;;1.94;100.00;97385.69;5090122;28;20076;-82
2022/04/01 11:05:23;;;;;;;6.80;4.65;;;;;;;2.09;100.00;97393.84;5090560;28;20075;-82
2022/04/01 11:08:17;;;;;;;3.95;3.22;;;;;;;1.84;100.00;97401.13;5090189;28;20056;-83
2022/04/01 11:11:13;;;;;;;5.70;3.97;;;;;;;2.08;100.00;97405.56;5089604;28;20460;-83
2022/04/01 11:13:40;;;;;;;4.10;3.70;;;;;;;1.95;100.00;97410.63;5088053;28;20074;-82
2022/04/01 11:16:18;;;;;;;4.95;3.63;;;;;;;1.88;100.00;97404.28;5090573;28;20052;-83
2022/04/01 11:19:15;;;;;;;6.35;4.53;;;;;;;1.92;100.00;97408.31;5094097;28;20135;-83
2022/04/01 11:21:43;;;;;;;7.70;5.22;;;;;;;1.83;100.00;97414.72;5087463;28;20121;-83
2022/04/01 11:24:30;;;;;;;6.75;4.97;;;;;;;1.83;100.00;97412.03;5093379;28;20055;-81
2022/04/01 11:27:06;;;;;;;5.03;4.00;;;;;;;1.58;100.00;97414.75;5094097;28;20044;-80
2022/04/01 11:29:33;;;;;;;5.20;4.03;;;;;;;1.72;100.00;97415.91;5093990;28;20059;-82
2022/04/01 11:32:07;;;;;;;3.95;3.47;;;;;;;1.61;100.00;97413.59;5092079;28;20044;-81
2022/04/01 11:34:53;;;;;;;5.90;4.20;;;;;;;1.62;100.00;97431.34;5091262;28;20044;-82
2022/04/01 11:37:29;;;;;;;6.63;5.35;;;;;;;1.77;100.00;97419.72;5093704;28;20382;-82
2022/04/01 11:40:07;;;;;;;7.68;4.97;;;;;;;1.73;100.00;97422.94;5086171;28;20860;-82
2022/04/01 11:42:35;;;;;;;7.32;5.32;;;;;;;1.65;100.00;97420.28;5094407;28;20483;-82
2022/04/01 11:45:01;;;;;;;6.25;4.90;;;;;;;1.80;100.00;97423.09;5088573;28;20132;-83
2022/04/01 11:47:35;;;;;;;7.95;5.57;;;;;;;1.77;100.00;97419.72;5093464;28;20050;-82
2022/04/01 11:50:09;;;;;;;6.45;4.95;;;;;;;1.93;100.00;97439.47;5076727;28;20462;-82
2022/04/01 11:52:38;;;;;;;6.78;5.07;;;;;;;1.74;100.00;97428.13;5081643;28;20048;-82
2022/04/01 11:55:11;;;;;;;7.00;5.13;;;;;;;1.64;100.00;97407.88;5071577;28;20089;-82
2022/04/01 11:57:43;;;;;;;7.32;5.22;;;;;;;1.62;100.00;97405.38;5092256;28;20119;-83
2022/04/01 12:00:11;;;;;;;5.80;4.70;;;;;;;1.59;100.00;97405.72;5092942;28;20135;-82
2022/04/01 12:02:41;;;;;;;6.22;4.88;;;;;;;1.66;100.00;97430.81;5082614;28;20123;-83
2022/04/01 12:05:08;;;;;;;;;;;;;;;1.59;100.00;97430.66;5093220;28;20050;-82
2022/04/01 12:10:23;;;;;;;7.55;5.65;;;;;;;1.41;100.00;97448.75;5087926;28;20698;-76
2022/04/01 12:12:58;;;;;;;8.65;6.65;;;;;;;1.17;100.00;97436.22;5085670;28;20052;-83
2022/04/01 12:15:32;;;;;;;8.63;6.07;;;;;;;1.05;100.00;97436.59;5092500;28;20051;-83
2022/04/01 12:18:00;;;;;;;9.15;6.82;;;;;;;1.09;100.00;97439.75;5091956;28;20048;-82
2022/04/01 12:20:28;;;;;;;10.63;6.85;;;;;;;1.08;100.00;97419.34;5092960;28;20056;-83
2022/04/01 12:22:56;;;;;;;10.30;7.03;;;;;;;1.25;100.00;97452.31;5090906;28;20048;-82
2022/04/01 12:25:23;;;;;;;9.73;6.93;;;;;;;1.16;100.00;97437.22;5093136;28;20090;-83
2022/04/01 12:27:56;;;;;;;10.65;7.43;;;;;;;1.13;100.00;97450.94;5091088;28;20135;-83
2022/04/01 12:30:33;;;;;;;14.68;7.82;;;;;;;1.12;100.00;97450.13;5092570;28;20434;-82
2022/04/01 12:33:02;;;;;;;8.73;6.45;;;;;;;1.02;100.00;97452.13;5091758;28;20044;-82
2022/04/01 12:35:29;;;;;;;12.23;8.23;;;;;;;1.10;100.00;97437.91;5092836;28;20556;-82
2022/04/01 12:38:06;;;;;;;12.52;9.15;;;;;;;1.31;100.00;97454.31;5092070;28;20048;-82
2022/04/01 12:40:50;;;;;;;10.95;8.40;;;;;;;1.31;100.00;97448.09;5092403;28;20063;-82
2022/04/01 12:43:46;;;;;;;11.38;8.93;;;;;;;1.11;100.00;97437.72;5089363;28;20077;-81
2022/04/01 12:46:14;;;;;;;9.02;6.53;;;;;;;0.99;100.00;97439.06;5034845;28;20059;-82
2022/04/01 12:48:42;;;;;;;11.55;7.72;;;;;;;1.12;100.00;97454.66;5092686;28;20097;-82
2022/04/01 12:51:09;;;;;;;12.88;9.38;;;;;;;0.99;100.00;97449.78;5092322;28;20044;-82
2022/04/01 12:53:36;;;;;;;9.25;6.70;;;;;;;1.17;100.00;97461.16;5091669;28;20054;-81
2022/04/01 12:56:21;;;;;;;13.77;9.50;;;;;;;1.02;100.00;97462.81;5091730;28;20055;-82
2022/04/01 12:58:51;;;;;;;13.88;8.90;;;;;;;0.79;100.00;97435.88;5090945;28;20058;-82
2022/04/01 13:01:23;;;;;;;13.63;8.18;;;;;;;1.00;100.00;97463.00;5092494;28;20048;-82
2022/04/01 13:03:50;;;;;;;12.82;9.32;;;;;;;1.07;100.00;97457.81;5091402;28;20314;-81
2022/04/01 13:06:17;;;;;;;14.67;9.97;;;;;;;1.03;100.00;97462.66;5092434;28;20052;-81
2022/04/01 13:08:44;;;;;;;12.13;9.13;;;;;;;1.04;100.00;97468.88;5092493;28;20457;-82
2022/04/01 13:11:15;;;;;;;12.80;8.68;;;;;;;0.92;100.00;97457.66;5090953;28;20051;-83
2022/04/01 13:13:42;;;;;;;13.48;9.18;;;;;;;1.03;100.00;97459.97;5072897;28;20059;-82
2022/04/01 13:16:10;;;;;;;15.50;10.33;;;;;;;1.17;100.00;97471.84;5092082;28;20086;-83
2022/04/01 13:18:37;;;;;;;11.07;8.32;;;;;;;1.16;100.00;97464.00;5092444;28;20093;-82
2022/04/01 13:21:03;;;;;;;13.20;8.98;;;;;;;1.14;100.00;97485.56;5091854;28;20511;-82
2022/04/01 13:23:31;;;;;;;13.45;7.65;;;;;;;0.71;100.00;97466.16;5089490;28;20048;-82
2022/04/01 13:25:58;;;;;;;12.80;8.65;;;;;;;0.78;100.00;97480.50;5091061;28;20051;-82
2022/04/01 13:28:24;;;;;;;10.48;8.00;;;;;;;0.56;100.00;97473.97;5092201;28;20063;-82
2022/04/01 13:30:51;;;;;;;11.37;8.63;;;;;;;0.67;100.00;97479.00;5089172;28;20052;-82
2022/04/01 13:33:19;;;;;;;15.23;9.45;;;;;;;0.74;100.00;97491.69;5091013;28;20047;-82
2022/04/01 13:35:45;;;;;;;14.55;9.82;;;;;;;0.91;100.00;97488.06;5091511;28;20058;-83
2022/04/01 13:38:12;;;;;;;12.68;9.30;;;;;;;0.81;100.00;97477.53;5091733;28;20048;-82
2022/04/01 13:40:39;;;;;;;14.52;9.30;;;;;;;0.75;100.00;97486.19;5090904;28;20097;-83
2022/04/01 13:43:06;;;;;;;12.68;9.00;;;;;;;0.76;100.00;97493.22;5090307;28;20048;-82
2022/04/01 13:45:33;;;;;;;21.17;10.10;;;;;;;0.82;100.00;97476.50;5090141;28;20570;-83
2022/04/01 13:48:00;;;;;;;16.67;10.83;;;;;;;0.84;100.00;97492.41;5091482;28;20069;-82
2022/04/01 13:50:28;;;;;;;17.25;11.02;;;;;;;1.08;100.00;97490.78;5090522;28;20055;-82
2022/04/01 13:52:54;;;;;;;15.82;10.65;;;;;;;1.18;100.00;97483.41;5089992;28;20044;-82
2022/04/01 13:55:21;;;;;;;13.63;8.75;;;;;;;0.97;100.00;97476.72;5091495;28;20044;-82
2022/04/01 13:57:48;;;;;;;10.75;7.05;;;;;;;1.08;100.00;97488.09;5090357;28;20138;-82
2022/04/01 14:00:15;;;;;;;13.55;8.25;;;;;;;1.09;100.00;97479.91;5090014;28;20444;-83
2022/04/01 14:02:43;;;;;;;15.15;9.75;;;;;;;1.03;100.00;97508.16;5090272;28;20051;-83
2022/04/01 14:05:11;;;;;;;15.07;8.57;;;;;;;0.97;100.00;97506.13;5091303;28;20040;-83
2022/04/01 14:07:39;;;;;;;11.93;9.32;;;;;;;0.96;100.00;97501.78;5090935;28;20052;-81
2022/04/01 14:10:06;;;;;;;12.23;8.50;;;;;;;0.76;100.00;97503.91;5091253;28;20055;-82
2022/04/01 14:12:33;;;;;;;12.18;8.55;;;;;;;0.90;100.00;97515.00;5089905;28;20127;-83
2022/04/01 14:15:00;;;;;;;12.40;8.20;;;;;;;0.78;100.00;97525.16;5084147;28;20505;-83
2022/04/01 14:17:26;;;;;;;15.05;9.48;;;;;;;0.85;100.00;97512.81;5091207;28;20090;-82
2022/04/01 14:19:53;;;;;;;13.85;8.93;;;;;;;0.87;100.00;97514.34;5091637;28;20048;-82
2022/04/01 14:22:19;;;;;;;10.43;6.53;;;;;;;0.58;100.00;97503.22;5088910;28;20062;-83
2022/04/01 14:24:47;;;;;;;14.77;9.33;;;;;;;0.63;100.00;97499.06;5090870;28;20059;-83
2022/04/01 14:27:16;;;;;;;14.70;9.13;;;;;;;0.74;100.00;97518.44;5090899;28;20051;-82
2022/04/01 14:32:27;;;;;;;16.75;10.80;;;;;;;1.04;100.00;97517.03;5088729;28;20093;-82
2022/04/01 14:34:53;;;;;;;13.13;8.20;;;;;;;0.80;100.00;97504.41;5090826;28;20059;-83
2022/04/01 14:37:20;;;;;;;16.10;9.87;;;;;;;0.98;100.00;97523.88;5090582;28;20097;-83
2022/04/01 14:39:48;;;;;;;15.80;9.50;;;;;;;0.87;100.00;97534.88;5090588;28;20040;-83
2022/04/01 14:42:15;;;;;;;16.73;9.88;;;;;;;0.92;100.00;97539.75;5090464;28;20479;-83
2022/04/01 14:44:41;;;;;;;17.40;9.75;;;;;;;0.91;100.00;97540.75;5090281;28;20499;-83
2022/04/01 14:47:08;;;;;;;15.40;10.20;;;;;;;0.99;100.00;97543.44;5091007;28;20143;-83
2022/04/01 14:49:36;;;;;;;15.80;9.07;;;;;;;0.84;100.00;97521.81;5089679;28;20048;-83
2022/04/01 14:52:03;;;;;;;15.90;10.63;;;;;;;0.80;100.00;97544.56;5091420;28;20083;-82
2022/04/01 14:54:30;;;;;;;13.13;8.50;;;;;;;0.89;100.00;97551.63;5094274;28;20052;-83
2022/04/01 14:56:58;;;;;;;14.95;9.65;;;;;;;0.84;100.00;97544.09;5093984;28;20131;-83
2022/04/01 14:59:25;;;;;;;17.20;10.00;;;;;;;0.90;100.00;97521.16;5094836;28;20130;-83
2022/04/01 15:01:53;;;;;;;12.52;8.25;;;;;;;0.83;100.00;97553.09;5094830;28;20055;-82
2022/04/01 15:04:20;;;;;;;13.57;9.18;;;;;;;1.10;100.00;97551.16;5093882;28;20113;-83
2022/04/01 15:06:48;;;;;;;18.08;10.10;;;;;;;0.92;100.00;97537.06;5092977;28;20058;-83
2022/04/01 15:09:15;;;;;;;16.73;9.73;;;;;;;0.99;100.00;97562.16;5094102;28;20048;-83
2022/04/01 15:11:42;;;;;;;13.65;8.25;;;;;;;0.81;100.00;97556.94;5094506;28;20440;-83
2022/04/01 15:14:10;;;;;;;15.30;9.48;;;;;;;0.70;100.00;97566.94;5093639;28;20048;-83
2022/04/01 15:16:38;;;;;;;15.95;9.25;;;;;;;0.67;100.00;97561.91;5094519;28;20060;-82
2022/04/01 15:19:05;;;;;;;13.93;9.27;;;;;;;0.69;100.00;97570.63;5094479;28;20059;-83
2022/04/01 15:21:33;;;;;;;14.68;8.93;;;;;;;0.65;100.00;97571.09;5093433;28;20083;-82
2022/04/01 15:24:00;;;;;;;16.63;10.18;;;;;;;0.57;100.00;97584.44;5092548;28;20063;-82
2022/04/01 15:26:26;;;;;;;10.95;7.40;;;;;;;0.38;100.00;97566.78;5093647;28;20047;-82
2022/04/01 15:28:53;;;;;;;16.02;9.98;;;;;;;0.50;100.00;97558.34;5094215;28;20516;-83
2022/04/01 15:31:21;;;;;;;11.95;7.90;;;;;;;0.51;100.00;97577.88;5093683;28;20135;-82
2022/04/01 15:33:48;;;;;;;14.13;9.50;;;;;;;0.50;100.00;97585.06;5093083;28;20496;-81
2022/04/01 15:36:20;;;;;;;16.35;9.25;;;;;;;0.24;100.00;97568.22;5094143;28;20044;-82
2022/04/01 15:38:52;;;;;;;10.02;5.65;;;;;;;0.25;100.00;97580.59;5093633;28;20048;-80
2022/04/01 15:41:20;;;;;;;17.23;9.15;;;;;;;0.26;100.00;97576.94;5095932;28;20101;-80
2022/04/01 15:43:48;;;;;;;13.95;8.63;;;;;;;0.32;100.00;97589.66;5094846;28;20051;-82
2022/04/01 15:46:17;;;;;;;20.30;10.82;;;;;;;0.35;100.00;97581.31;5095863;28;20125;-82
2022/04/01 15:48:49;;;;;;;17.83;10.30;;;;;;;0.31;100.00;97580.78;5094503;28;20054;-83
2022/04/01 15:51:18;;;;;;;42.17;24.63;;;;;;;0.38;100.00;97572.13;5095623;28;20501;-82
2022/04/01 15:53:48;;;;;;;41.33;24.93;;;;;;;0.35;100.00;97571.47;5094825;28;20072;-83
2022/04/01 15:56:15;;;;;;;51.45;27.20;;;;;;;0.37;100.00;97584.66;5093787;28;20054;-83
2022/04/01 15:58:43;;;;;;;38.42;20.73;;;;;;;0.48;100.00;97602.25;5093768;28;20406;-83
2022/04/01 16:01:10;;;;;;;19.23;11.32;;;;;;;0.21;100.00;97590.78;5092104;28;20502;-83
2022/04/01 16:03:41;;;;;;;18.27;12.55;;;;;;;0.25;100.00;97616.16;5091842;28;20048;-83
2022/04/01 16:06:10;;;;;;;25.58;15.90;;;;;;;0.37;100.00;97606.06;5093702;28;20122;-83
2022/04/01 16:08:40;;;;;;;23.58;13.88;;;;;;;0.20;100.00;97594.44;5093657;28;20064;-83
2022/04/01 16:11:09;;;;;;;58.13;28.80;;;;;;;0.25;100.00;97610.00;5075725;28;20044;-83
2022/04/01 16:13:40;;;;;;;27.77;16.95;;;;;;;0.31;100.00;97610.19;5092710;28;20138;-83
2022/04/01 16:16:07;;;;;;;14.63;9.77;;;;;;;0.26;100.00;97619.69;5093540;28;20075;-84
2022/04/01 16:18:33;;;;;;;20.67;15.27;;;;;;;0.35;100.00;97635.63;5092646;28;20078;-83
2022/04/01 16:21:00;;;;;;;19.33;11.20;;;;;;;0.27;100.00;97626.72;5092297;28;20525;-83
2022/04/01 16:23:32;;;;;;;15.13;11.60;;;;;;;0.16;100.00;97630.47;5087221;28;20077;-84
2022/04/01 16:26:00;;;;;;;14.50;10.37;;;;;;;0.18;100.00;97649.88;5102980;28;20065;-83
2022/04/01 16:28:27;;;;;;;21.55;14.02;;;;;;;0.13;100.00;97625.44;5111516;28;20059;-83
2022/04/01 16:30:54;;;;;;;19.00;12.40;;;;;;;0.16;100.00;97652.69;5111536;28;20079;-83
2022/04/01 16:33:28;;;;;;;17.23;10.97;;;;;;;0.14;100.00;97645.84;5109945;28;20039;-83
2022/04/01 16:35:55;;;;;;;19.57;11.27;;;;;;;0.11;100.00;97659.53;5093678;28;20138;-83
2022/04/01 16:38:21;;;;;;;18.93;12.20;;;;;;;0.14;100.00;97657.38;5089918;28;20048;-83
2022/04/01 16:40:49;;;;;;;17.70;11.67;;;;;;;0.05;100.00;97641.44;5090347;28;20509;-84
2022/04/01 16:43:16;;;;;;;18.23;11.33;;;;;;;-0.02;100.00;97636.69;5090239;28;20052;-83
2022/04/01 16:45:43;;;;;;;49.60;26.40;;;;;;;0.13;100.00;97647.66;5090754;28;20461;-84
